sensor_id;sensor_type;location;lat;lon;timestamp;P1;durP1;ratioP1;P2;durP2;ratioP2
44588;SDS011;30298;52.562;13.414;2023-04-25T00:00:25;7.13;;;4.00;;
44588;SDS011;30298;52.562;13.414;2023-04-25T00:02:50;4.93;;;3.93;;
44588;SDS011;30298;52.562;13.414;2023-04-25T00:05:15;6.67;;;4.17;;
44588;SDS011;30298;52.562;13.414;2023-04-25T00:07:41;7.50;;;3.65;;
44588;SDS011;30298;52.562;13.414;2023-04-25T00:10:09;9.30;;;4.57;;
44588;SDS011;30298;52.562;13.414;2023-04-25T00:12:36;5.68;;;4.10;;
44588;SDS011;30298;52.562;13.414;2023-04-25T00:15:01;6.97;;;4.00;;
44588;SDS011;30298;52.562;13.414;2023-04-25T00:17:26;6.00;;;4.17;;
44588;SDS011;30298;52.562;13.414;2023-04-25T00:19:52;5.93;;;3.10;;
44588;SDS011;30298;52.562;13.414;2023-04-25T00:22:17;7.03;;;4.50;;
44588;SDS011;30298;52.562;13.414;2023-04-25T00:24:43;6.97;;;2.83;;
44588;SDS011;30298;52.562;13.414;2023-04-25T00:27:08;6.37;;;3.60;;
44588;SDS011;30298;52.562;13.414;2023-04-25T00:29:33;6.60;;;3.53;;
44588;SDS011;30298;52.562;13.414;2023-04-25T00:31:59;6.40;;;3.37;;
44588;SDS011;30298;52.562;13.414;2023-04-25T00:34:24;4.10;;;3.50;;
44588;SDS011;30298;52.562;13.414;2023-04-25T00:36:49;8.10;;;3.43;;
44588;SDS011;30298;52.562;13.414;2023-04-25T00:39:15;7.63;;;2.63;;
44588;SDS011;30298;52.562;13.414;2023-04-25T00:41:40;10.33;;;3.50;;
44588;SDS011;30298;52.562;13.414;2023-04-25T00:44:05;7.17;;;2.77;;
44588;SDS011;30298;52.562;13.414;2023-04-25T00:46:32;8.82;;;3.63;;
44588;SDS011;30298;52.562;13.414;2023-04-25T00:48:57;6.17;;;3.43;;
44588;SDS011;30298;52.562;13.414;2023-04-25T00:51:23;8.50;;;3.60;;
44588;SDS011;30298;52.562;13.414;2023-04-25T00:53:49;10.15;;;3.30;;
44588;SDS011;30298;52.562;13.414;2023-04-25T00:56:15;6.90;;;3.40;;
44588;SDS011;30298;52.562;13.414;2023-04-25T00:58:41;5.05;;;3.30;;
44588;SDS011;30298;52.562;13.414;2023-04-25T01:03:35;5.00;;;3.40;;
44588;SDS011;30298;52.562;13.414;2023-04-25T01:06:05;7.03;;;3.72;;
44588;SDS011;30298;52.562;13.414;2023-04-25T01:08:30;7.27;;;4.20;;
44588;SDS011;30298;52.562;13.414;2023-04-25T01:10:56;10.87;;;4.00;;
44588;SDS011;30298;52.562;13.414;2023-04-25T01:13:21;7.77;;;3.60;;
44588;SDS011;30298;52.562;13.414;2023-04-25T01:15:46;5.57;;;3.60;;
44588;SDS011;30298;52.562;13.414;2023-04-25T01:18:12;4.75;;;3.20;;
44588;SDS011;30298;52.562;13.414;2023-04-25T01:20:38;7.37;;;3.50;;
44588;SDS011;30298;52.562;13.414;2023-04-25T01:23:03;5.07;;;3.00;;
44588;SDS011;30298;52.562;13.414;2023-04-25T01:25:30;5.40;;;3.20;;
44588;SDS011;30298;52.562;13.414;2023-04-25T01:27:56;7.50;;;4.07;;
44588;SDS011;30298;52.562;13.414;2023-04-25T01:30:21;8.48;;;3.45;;
44588;SDS011;30298;52.562;13.414;2023-04-25T01:32:47;5.20;;;3.57;;
44588;SDS011;30298;52.562;13.414;2023-04-25T01:35:13;5.95;;;3.20;;
44588;SDS011;30298;52.562;13.414;2023-04-25T01:37:39;7.05;;;3.40;;
44588;SDS011;30298;52.562;13.414;2023-04-25T01:40:05;7.07;;;3.40;;
44588;SDS011;30298;52.562;13.414;2023-04-25T01:42:31;5.35;;;4.03;;
44588;SDS011;30298;52.562;13.414;2023-04-25T01:47:22;5.70;;;3.35;;
44588;SDS011;30298;52.562;13.414;2023-04-25T01:49:47;7.73;;;3.93;;
44588;SDS011;30298;52.562;13.414;2023-04-25T01:52:12;8.57;;;3.53;;
44588;SDS011;30298;52.562;13.414;2023-04-25T01:54:38;7.50;;;3.70;;
44588;SDS011;30298;52.562;13.414;2023-04-25T01:57:03;8.63;;;3.90;;
44588;SDS011;30298;52.562;13.414;2023-04-25T01:59:28;8.90;;;3.77;;
44588;SDS011;30298;52.562;13.414;2023-04-25T02:01:53;11.63;;;3.90;;
44588;SDS011;30298;52.562;13.414;2023-04-25T02:04:19;11.67;;;4.00;;
44588;SDS011;30298;52.562;13.414;2023-04-25T02:06:44;5.60;;;4.23;;
44588;SDS011;30298;52.562;13.414;2023-04-25T02:09:09;7.77;;;4.00;;
44588;SDS011;30298;52.562;13.414;2023-04-25T02:11:35;10.23;;;4.17;;
44588;SDS011;30298;52.562;13.414;2023-04-25T02:14:00;7.97;;;5.03;;
44588;SDS011;30298;52.562;13.414;2023-04-25T02:16:25;10.87;;;4.20;;
44588;SDS011;30298;52.562;13.414;2023-04-25T02:18:51;8.20;;;5.07;;
44588;SDS011;30298;52.562;13.414;2023-04-25T02:21:17;8.88;;;4.10;;
44588;SDS011;30298;52.562;13.414;2023-04-25T02:23:43;7.03;;;4.40;;
44588;SDS011;30298;52.562;13.414;2023-04-25T02:26:10;9.13;;;4.32;;
44588;SDS011;30298;52.562;13.414;2023-04-25T02:28:38;7.28;;;3.83;;
44588;SDS011;30298;52.562;13.414;2023-04-25T02:31:03;10.53;;;4.40;;
44588;SDS011;30298;52.562;13.414;2023-04-25T02:33:28;9.60;;;4.63;;
44588;SDS011;30298;52.562;13.414;2023-04-25T02:35:54;7.50;;;4.60;;
44588;SDS011;30298;52.562;13.414;2023-04-25T02:38:19;11.27;;;4.33;;
44588;SDS011;30298;52.562;13.414;2023-04-25T02:40:44;8.80;;;4.10;;
44588;SDS011;30298;52.562;13.414;2023-04-25T02:43:10;8.20;;;4.43;;
44588;SDS011;30298;52.562;13.414;2023-04-25T02:45:35;6.60;;;4.47;;
44588;SDS011;30298;52.562;13.414;2023-04-25T02:48:01;8.80;;;5.23;;
44588;SDS011;30298;52.562;13.414;2023-04-25T02:50:26;9.02;;;4.47;;
44588;SDS011;30298;52.562;13.414;2023-04-25T02:52:51;8.07;;;4.17;;
44588;SDS011;30298;52.562;13.414;2023-04-25T02:55:16;7.87;;;4.50;;
44588;SDS011;30298;52.562;13.414;2023-04-25T02:57:42;7.70;;;4.30;;
44588;SDS011;30298;52.562;13.414;2023-04-25T03:00:07;7.97;;;4.80;;
44588;SDS011;30298;52.562;13.414;2023-04-25T03:02:33;7.40;;;4.32;;
44588;SDS011;30298;52.562;13.414;2023-04-25T03:04:58;8.97;;;5.17;;
44588;SDS011;30298;52.562;13.414;2023-04-25T03:07:23;6.97;;;4.67;;
44588;SDS011;30298;52.562;13.414;2023-04-25T03:09:48;9.20;;;4.70;;
44588;SDS011;30298;52.562;13.414;2023-04-25T03:12:14;8.83;;;4.80;;
44588;SDS011;30298;52.562;13.414;2023-04-25T03:14:39;8.40;;;4.20;;
44588;SDS011;30298;52.562;13.414;2023-04-25T03:17:04;11.43;;;5.30;;
44588;SDS011;30298;52.562;13.414;2023-04-25T03:19:30;8.40;;;4.60;;
44588;SDS011;30298;52.562;13.414;2023-04-25T03:21:55;9.77;;;5.13;;
44588;SDS011;30298;52.562;13.414;2023-04-25T03:24:21;8.80;;;4.87;;
44588;SDS011;30298;52.562;13.414;2023-04-25T03:26:46;9.68;;;5.70;;
44588;SDS011;30298;52.562;13.414;2023-04-25T03:29:12;9.30;;;4.97;;
44588;SDS011;30298;52.562;13.414;2023-04-25T03:31:37;6.30;;;3.83;;
44588;SDS011;30298;52.562;13.414;2023-04-25T03:34:02;7.63;;;4.00;;
44588;SDS011;30298;52.562;13.414;2023-04-25T03:36:27;8.00;;;4.70;;
44588;SDS011;30298;52.562;13.414;2023-04-25T03:38:53;10.47;;;5.50;;
44588;SDS011;30298;52.562;13.414;2023-04-25T03:41:18;7.17;;;4.93;;
44588;SDS011;30298;52.562;13.414;2023-04-25T03:43:43;10.10;;;4.83;;
44588;SDS011;30298;52.562;13.414;2023-04-25T03:46:08;6.00;;;4.30;;
44588;SDS011;30298;52.562;13.414;2023-04-25T03:48:34;8.77;;;4.67;;
44588;SDS011;30298;52.562;13.414;2023-04-25T03:50:59;8.07;;;5.00;;
44588;SDS011;30298;52.562;13.414;2023-04-25T03:53:25;8.33;;;4.90;;
44588;SDS011;30298;52.562;13.414;2023-04-25T03:55:50;12.75;;;5.15;;
44588;SDS011;30298;52.562;13.414;2023-04-25T03:58:16;13.85;;;5.88;;
44588;SDS011;30298;52.562;13.414;2023-04-25T04:00:41;12.27;;;5.40;;
44588;SDS011;30298;52.562;13.414;2023-04-25T04:03:07;8.47;;;5.23;;
44588;SDS011;30298;52.562;13.414;2023-04-25T04:05:32;9.83;;;4.40;;
44588;SDS011;30298;52.562;13.414;2023-04-25T04:07:57;8.47;;;5.33;;
44588;SDS011;30298;52.562;13.414;2023-04-25T04:10:23;8.83;;;5.20;;
44588;SDS011;30298;52.562;13.414;2023-04-25T04:12:48;10.83;;;4.70;;
44588;SDS011;30298;52.562;13.414;2023-04-25T04:15:13;7.13;;;4.67;;
44588;SDS011;30298;52.562;13.414;2023-04-25T04:17:38;10.20;;;5.00;;
44588;SDS011;30298;52.562;13.414;2023-04-25T04:20:04;7.33;;;4.50;;
44588;SDS011;30298;52.562;13.414;2023-04-25T04:22:30;8.30;;;4.75;;
44588;SDS011;30298;52.562;13.414;2023-04-25T04:24:56;9.37;;;4.40;;
44588;SDS011;30298;52.562;13.414;2023-04-25T04:27:21;10.77;;;5.00;;
44588;SDS011;30298;52.562;13.414;2023-04-25T04:29:47;8.05;;;4.82;;
44588;SDS011;30298;52.562;13.414;2023-04-25T04:32:13;9.63;;;5.70;;
44588;SDS011;30298;52.562;13.414;2023-04-25T04:34:39;10.15;;;5.03;;
44588;SDS011;30298;52.562;13.414;2023-04-25T04:37:04;6.70;;;3.80;;
44588;SDS011;30298;52.562;13.414;2023-04-25T04:39:30;13.00;;;5.22;;
44588;SDS011;30298;52.562;13.414;2023-04-25T04:41:55;9.82;;;4.60;;
44588;SDS011;30298;52.562;13.414;2023-04-25T04:44:21;12.20;;;4.93;;
44588;SDS011;30298;52.562;13.414;2023-04-25T04:46:46;8.57;;;4.33;;
44588;SDS011;30298;52.562;13.414;2023-04-25T04:49:11;7.90;;;4.10;;
44588;SDS011;30298;52.562;13.414;2023-04-25T04:51:38;11.45;;;4.28;;
44588;SDS011;30298;52.562;13.414;2023-04-25T04:54:05;9.02;;;4.18;;
44588;SDS011;30298;52.562;13.414;2023-04-25T04:56:30;9.57;;;4.60;;
44588;SDS011;30298;52.562;13.414;2023-04-25T04:58:56;10.17;;;5.13;;
44588;SDS011;30298;52.562;13.414;2023-04-25T05:01:21;7.13;;;4.15;;
44588;SDS011;30298;52.562;13.414;2023-04-25T05:03:47;8.93;;;4.53;;
44588;SDS011;30298;52.562;13.414;2023-04-25T05:06:12;8.97;;;4.13;;
44588;SDS011;30298;52.562;13.414;2023-04-25T05:08:37;11.77;;;5.77;;
44588;SDS011;30298;52.562;13.414;2023-04-25T05:11:03;9.30;;;4.70;;
44588;SDS011;30298;52.562;13.414;2023-04-25T05:13:28;7.20;;;4.17;;
44588;SDS011;30298;52.562;13.414;2023-04-25T05:15:53;8.83;;;4.43;;
44588;SDS011;30298;52.562;13.414;2023-04-25T05:18:18;6.63;;;3.93;;
44588;SDS011;30298;52.562;13.414;2023-04-25T05:20:44;9.90;;;5.03;;
44588;SDS011;30298;52.562;13.414;2023-04-25T05:23:09;11.27;;;4.70;;
44588;SDS011;30298;52.562;13.414;2023-04-25T05:25:35;8.17;;;5.57;;
44588;SDS011;30298;52.562;13.414;2023-04-25T05:28:00;10.60;;;5.07;;
44588;SDS011;30298;52.562;13.414;2023-04-25T05:30:25;9.17;;;4.53;;
44588;SDS011;30298;52.562;13.414;2023-04-25T05:32:51;11.37;;;5.53;;
44588;SDS011;30298;52.562;13.414;2023-04-25T05:35:16;12.73;;;5.40;;
44588;SDS011;30298;52.562;13.414;2023-04-25T05:37:41;13.37;;;6.73;;
44588;SDS011;30298;52.562;13.414;2023-04-25T05:40:07;9.95;;;4.50;;
44588;SDS011;30298;52.562;13.414;2023-04-25T05:42:33;9.68;;;5.45;;
44588;SDS011;30298;52.562;13.414;2023-04-25T05:44:59;10.07;;;5.30;;
44588;SDS011;30298;52.562;13.414;2023-04-25T05:47:24;8.50;;;5.20;;
44588;SDS011;30298;52.562;13.414;2023-04-25T05:49:49;11.83;;;5.83;;
44588;SDS011;30298;52.562;13.414;2023-04-25T05:52:15;8.97;;;4.63;;
44588;SDS011;30298;52.562;13.414;2023-04-25T05:54:40;8.00;;;4.57;;
44588;SDS011;30298;52.562;13.414;2023-04-25T05:57:06;9.67;;;5.40;;
44588;SDS011;30298;52.562;13.414;2023-04-25T05:59:31;5.43;;;3.50;;
44588;SDS011;30298;52.562;13.414;2023-04-25T06:01:56;9.87;;;5.27;;
44588;SDS011;30298;52.562;13.414;2023-04-25T06:04:22;10.50;;;5.20;;
44588;SDS011;30298;52.562;13.414;2023-04-25T06:06:47;11.40;;;5.93;;
44588;SDS011;30298;52.562;13.414;2023-04-25T06:09:12;10.97;;;5.40;;
44588;SDS011;30298;52.562;13.414;2023-04-25T06:11:38;13.60;;;6.73;;
44588;SDS011;30298;52.562;13.414;2023-04-25T06:14:03;11.37;;;5.70;;
44588;SDS011;30298;52.562;13.414;2023-04-25T06:16:28;13.37;;;6.60;;
44588;SDS011;30298;52.562;13.414;2023-04-25T06:18:53;11.43;;;5.73;;
44588;SDS011;30298;52.562;13.414;2023-04-25T06:21:19;14.97;;;5.20;;
44588;SDS011;30298;52.562;13.414;2023-04-25T06:23:44;7.93;;;4.30;;
44588;SDS011;30298;52.562;13.414;2023-04-25T06:26:09;9.53;;;5.53;;
44588;SDS011;30298;52.562;13.414;2023-04-25T06:28:34;8.40;;;4.20;;
44588;SDS011;30298;52.562;13.414;2023-04-25T06:31:00;18.53;;;6.00;;
44588;SDS011;30298;52.562;13.414;2023-04-25T06:33:25;13.83;;;5.13;;
44588;SDS011;30298;52.562;13.414;2023-04-25T06:35:51;11.25;;;5.88;;
44588;SDS011;30298;52.562;13.414;2023-04-25T06:38:16;9.00;;;5.17;;
44588;SDS011;30298;52.562;13.414;2023-04-25T06:40:42;11.43;;;6.07;;
44588;SDS011;30298;52.562;13.414;2023-04-25T06:43:07;12.00;;;5.93;;
44588;SDS011;30298;52.562;13.414;2023-04-25T06:45:32;10.20;;;5.87;;
44588;SDS011;30298;52.562;13.414;2023-04-25T06:47:58;12.57;;;4.90;;
44588;SDS011;30298;52.562;13.414;2023-04-25T06:50:23;11.97;;;6.63;;
44588;SDS011;30298;52.562;13.414;2023-04-25T06:52:48;9.37;;;5.87;;
44588;SDS011;30298;52.562;13.414;2023-04-25T06:55:14;11.03;;;5.93;;
44588;SDS011;30298;52.562;13.414;2023-04-25T06:57:40;8.05;;;4.80;;
44588;SDS011;30298;52.562;13.414;2023-04-25T07:00:05;7.17;;;4.83;;
44588;SDS011;30298;52.562;13.414;2023-04-25T07:02:33;15.75;;;6.82;;
44588;SDS011;30298;52.562;13.414;2023-04-25T07:04:59;9.93;;;4.60;;
44588;SDS011;30298;52.562;13.414;2023-04-25T07:07:25;8.90;;;5.53;;
44588;SDS011;30298;52.562;13.414;2023-04-25T07:09:50;11.43;;;6.32;;
44588;SDS011;30298;52.562;13.414;2023-04-25T07:12:15;14.63;;;5.27;;
44588;SDS011;30298;52.562;13.414;2023-04-25T07:14:41;7.60;;;3.73;;
44588;SDS011;30298;52.562;13.414;2023-04-25T07:17:06;12.33;;;5.00;;
44588;SDS011;30298;52.562;13.414;2023-04-25T07:19:32;11.70;;;5.63;;
44588;SDS011;30298;52.562;13.414;2023-04-25T07:21:58;11.45;;;5.43;;
44588;SDS011;30298;52.562;13.414;2023-04-25T07:24:23;18.20;;;7.00;;
44588;SDS011;30298;52.562;13.414;2023-04-25T07:26:48;12.27;;;4.90;;
44588;SDS011;30298;52.562;13.414;2023-04-25T07:29:14;11.17;;;4.80;;
44588;SDS011;30298;52.562;13.414;2023-04-25T07:31:39;7.87;;;4.17;;
44588;SDS011;30298;52.562;13.414;2023-04-25T07:34:04;9.77;;;4.80;;
44588;SDS011;30298;52.562;13.414;2023-04-25T07:36:30;11.55;;;4.20;;
44588;SDS011;30298;52.562;13.414;2023-04-25T07:38:56;14.25;;;4.55;;
44588;SDS011;30298;52.562;13.414;2023-04-25T07:41:21;19.60;;;5.53;;
44588;SDS011;30298;52.562;13.414;2023-04-25T07:43:47;11.05;;;4.53;;
44588;SDS011;30298;52.562;13.414;2023-04-25T07:46:12;14.17;;;5.20;;
44588;SDS011;30298;52.562;13.414;2023-04-25T07:48:41;13.70;;;4.30;;
44588;SDS011;30298;52.562;13.414;2023-04-25T07:51:06;10.98;;;4.50;;
44588;SDS011;30298;52.562;13.414;2023-04-25T07:53:32;14.52;;;4.28;;
44588;SDS011;30298;52.562;13.414;2023-04-25T07:55:59;12.27;;;4.45;;
44588;SDS011;30298;52.562;13.414;2023-04-25T07:58:25;11.80;;;4.33;;
44588;SDS011;30298;52.562;13.414;2023-04-25T08:00:50;15.60;;;4.23;;
44588;SDS011;30298;52.562;13.414;2023-04-25T08:03:15;17.03;;;3.63;;
44588;SDS011;30298;52.562;13.414;2023-04-25T08:05:41;14.93;;;4.37;;
44588;SDS011;30298;52.562;13.414;2023-04-25T08:08:06;13.20;;;4.87;;
44588;SDS011;30298;52.562;13.414;2023-04-25T08:10:32;14.48;;;3.70;;
44588;SDS011;30298;52.562;13.414;2023-04-25T08:12:57;12.52;;;3.80;;
44588;SDS011;30298;52.562;13.414;2023-04-25T08:15:22;15.33;;;4.47;;
44588;SDS011;30298;52.562;13.414;2023-04-25T08:17:47;16.33;;;4.93;;
44588;SDS011;30298;52.562;13.414;2023-04-25T08:20:13;14.57;;;4.10;;
44588;SDS011;30298;52.562;13.414;2023-04-25T08:22:38;17.97;;;5.83;;
44588;SDS011;30298;52.562;13.414;2023-04-25T08:25:03;9.30;;;4.90;;
44588;SDS011;30298;52.562;13.414;2023-04-25T08:27:29;11.30;;;4.47;;
44588;SDS011;30298;52.562;13.414;2023-04-25T08:29:55;14.93;;;4.80;;
44588;SDS011;30298;52.562;13.414;2023-04-25T08:32:20;12.37;;;4.47;;
44588;SDS011;30298;52.562;13.414;2023-04-25T08:34:48;10.93;;;4.05;;
44588;SDS011;30298;52.562;13.414;2023-04-25T08:37:14;16.90;;;4.10;;
44588;SDS011;30298;52.562;13.414;2023-04-25T08:39:39;18.17;;;4.03;;
44588;SDS011;30298;52.562;13.414;2023-04-25T08:42:07;11.60;;;4.07;;
44588;SDS011;30298;52.562;13.414;2023-04-25T08:44:36;12.73;;;3.67;;
44588;SDS011;30298;52.562;13.414;2023-04-25T08:47:02;23.20;;;5.80;;
44588;SDS011;30298;52.562;13.414;2023-04-25T08:49:28;14.32;;;3.92;;
44588;SDS011;30298;52.562;13.414;2023-04-25T08:51:54;14.70;;;4.68;;
44588;SDS011;30298;52.562;13.414;2023-04-25T08:54:24;14.52;;;4.07;;
44588;SDS011;30298;52.562;13.414;2023-04-25T08:56:52;14.65;;;3.53;;
44588;SDS011;30298;52.562;13.414;2023-04-25T08:59:18;12.35;;;3.63;;
44588;SDS011;30298;52.562;13.414;2023-04-25T09:01:44;10.40;;;4.88;;
44588;SDS011;30298;52.562;13.414;2023-04-25T09:04:11;15.35;;;4.03;;
44588;SDS011;30298;52.562;13.414;2023-04-25T09:06:36;11.20;;;3.97;;
44588;SDS011;30298;52.562;13.414;2023-04-25T09:09:03;14.13;;;3.60;;
44588;SDS011;30298;52.562;13.414;2023-04-25T09:11:29;15.75;;;4.38;;
44588;SDS011;30298;52.562;13.414;2023-04-25T09:14:10;13.87;;;3.23;;
44588;SDS011;30298;52.562;13.414;2023-04-25T09:16:35;9.50;;;4.53;;
44588;SDS011;30298;52.562;13.414;2023-04-25T09:19:00;12.77;;;3.47;;
44588;SDS011;30298;52.562;13.414;2023-04-25T09:21:26;13.37;;;3.47;;
44588;SDS011;30298;52.562;13.414;2023-04-25T09:24:01;11.00;;;3.47;;
44588;SDS011;30298;52.562;13.414;2023-04-25T09:26:26;13.63;;;4.05;;
44588;SDS011;30298;52.562;13.414;2023-04-25T09:29:04;12.77;;;3.27;;
44588;SDS011;30298;52.562;13.414;2023-04-25T09:31:30;9.02;;;3.65;;
44588;SDS011;30298;52.562;13.414;2023-04-25T09:34:01;10.57;;;3.17;;
44588;SDS011;30298;52.562;13.414;2023-04-25T09:36:26;12.90;;;3.15;;
44588;SDS011;30298;52.562;13.414;2023-04-25T09:38:52;10.68;;;3.45;;
44588;SDS011;30298;52.562;13.414;2023-04-25T09:41:22;10.65;;;2.95;;
44588;SDS011;30298;52.562;13.414;2023-04-25T09:43:48;9.70;;;3.78;;
44588;SDS011;30298;52.562;13.414;2023-04-25T09:46:14;8.85;;;2.65;;
44588;SDS011;30298;52.562;13.414;2023-04-25T09:48:40;8.70;;;2.78;;
44588;SDS011;30298;52.562;13.414;2023-04-25T09:51:13;12.30;;;2.80;;
44588;SDS011;30298;52.562;13.414;2023-04-25T09:53:39;9.48;;;2.50;;
44588;SDS011;30298;52.562;13.414;2023-04-25T09:56:06;7.47;;;3.08;;
44588;SDS011;30298;52.562;13.414;2023-04-25T09:58:31;11.90;;;2.70;;
44588;SDS011;30298;52.562;13.414;2023-04-25T10:00:59;10.40;;;3.55;;
44588;SDS011;30298;52.562;13.414;2023-04-25T10:03:25;7.68;;;2.55;;
44588;SDS011;30298;52.562;13.414;2023-04-25T10:08:17;10.75;;;2.83;;
44588;SDS011;30298;52.562;13.414;2023-04-25T10:10:43;8.52;;;2.72;;
44588;SDS011;30298;52.562;13.414;2023-04-25T10:13:08;8.43;;;2.60;;
44588;SDS011;30298;52.562;13.414;2023-04-25T10:15:34;7.40;;;2.97;;
44588;SDS011;30298;52.562;13.414;2023-04-25T10:18:01;5.15;;;2.40;;
44588;SDS011;30298;52.562;13.414;2023-04-25T10:22:53;9.52;;;2.45;;
44588;SDS011;30298;52.562;13.414;2023-04-25T10:25:22;7.82;;;3.88;;
44588;SDS011;30298;52.562;13.414;2023-04-25T10:27:48;9.20;;;2.78;;
44588;SDS011;30298;52.562;13.414;2023-04-25T10:30:15;5.72;;;2.05;;
44588;SDS011;30298;52.562;13.414;2023-04-25T10:32:44;5.47;;;2.50;;
44588;SDS011;30298;52.562;13.414;2023-04-25T10:35:14;5.28;;;1.95;;
44588;SDS011;30298;52.562;13.414;2023-04-25T10:37:56;9.88;;;2.75;;
44588;SDS011;30298;52.562;13.414;2023-04-25T10:40:22;5.82;;;2.65;;
44588;SDS011;30298;52.562;13.414;2023-04-25T10:42:48;10.05;;;2.45;;
44588;SDS011;30298;52.562;13.414;2023-04-25T10:45:13;10.50;;;3.23;;
44588;SDS011;30298;52.562;13.414;2023-04-25T10:47:48;13.73;;;3.20;;
44588;SDS011;30298;52.562;13.414;2023-04-25T10:50:21;9.02;;;2.72;;
44588;SDS011;30298;52.562;13.414;2023-04-25T10:52:46;7.60;;;2.30;;
44588;SDS011;30298;52.562;13.414;2023-04-25T10:55:12;8.60;;;2.87;;
44588;SDS011;30298;52.562;13.414;2023-04-25T10:57:41;11.00;;;3.33;;
44588;SDS011;30298;52.562;13.414;2023-04-25T11:02:43;9.05;;;2.80;;
44588;SDS011;30298;52.562;13.414;2023-04-25T11:05:10;9.35;;;3.55;;
44588;SDS011;30298;52.562;13.414;2023-04-25T11:07:43;5.60;;;2.05;;
44588;SDS011;30298;52.562;13.414;2023-04-25T11:10:09;8.43;;;2.30;;
44588;SDS011;30298;52.562;13.414;2023-04-25T11:12:34;8.93;;;3.00;;
44588;SDS011;30298;52.562;13.414;2023-04-25T11:15:06;7.83;;;2.53;;
44588;SDS011;30298;52.562;13.414;2023-04-25T11:17:32;8.25;;;2.60;;
44588;SDS011;30298;52.562;13.414;2023-04-25T11:19:58;11.60;;;2.90;;
44588;SDS011;30298;52.562;13.414;2023-04-25T11:22:23;4.90;;;2.23;;
44588;SDS011;30298;52.562;13.414;2023-04-25T11:24:48;6.70;;;2.90;;
44588;SDS011;30298;52.562;13.414;2023-04-25T11:27:14;8.50;;;2.33;;
44588;SDS011;30298;52.562;13.414;2023-04-25T11:29:40;5.30;;;2.97;;
44588;SDS011;30298;52.562;13.414;2023-04-25T11:32:05;10.35;;;2.55;;
44588;SDS011;30298;52.562;13.414;2023-04-25T11:34:31;7.95;;;2.75;;
44588;SDS011;30298;52.562;13.414;2023-04-25T11:36:58;6.50;;;2.50;;
44588;SDS011;30298;52.562;13.414;2023-04-25T11:39:23;6.63;;;2.40;;
44588;SDS011;30298;52.562;13.414;2023-04-25T11:41:49;8.25;;;2.50;;
44588;SDS011;30298;52.562;13.414;2023-04-25T11:44:15;7.78;;;2.45;;
44588;SDS011;30298;52.562;13.414;2023-04-25T11:46:41;6.70;;;2.25;;
44588;SDS011;30298;52.562;13.414;2023-04-25T11:49:07;7.75;;;2.30;;
44588;SDS011;30298;52.562;13.414;2023-04-25T11:51:45;10.00;;;2.70;;
44588;SDS011;30298;52.562;13.414;2023-04-25T11:54:11;11.35;;;2.95;;
44588;SDS011;30298;52.562;13.414;2023-04-25T11:56:37;7.22;;;2.30;;
44588;SDS011;30298;52.562;13.414;2023-04-25T11:59:05;8.50;;;2.70;;
44588;SDS011;30298;52.562;13.414;2023-04-25T12:01:32;6.20;;;2.43;;
44588;SDS011;30298;52.562;13.414;2023-04-25T12:03:57;8.93;;;2.55;;
44588;SDS011;30298;52.562;13.414;2023-04-25T12:06:27;5.90;;;2.25;;
44588;SDS011;30298;52.562;13.414;2023-04-25T12:09:03;5.05;;;2.83;;
44588;SDS011;30298;52.562;13.414;2023-04-25T12:11:32;7.35;;;3.15;;
44588;SDS011;30298;52.562;13.414;2023-04-25T12:14:06;4.78;;;2.65;;
44588;SDS011;30298;52.562;13.414;2023-04-25T12:16:44;12.00;;;2.50;;
44588;SDS011;30298;52.562;13.414;2023-04-25T12:19:13;5.55;;;2.50;;
44588;SDS011;30298;52.562;13.414;2023-04-25T12:21:39;11.25;;;2.55;;
44588;SDS011;30298;52.562;13.414;2023-04-25T12:24:11;6.67;;;2.70;;
44588;SDS011;30298;52.562;13.414;2023-04-25T12:29:38;10.10;;;3.30;;
44588;SDS011;30298;52.562;13.414;2023-04-25T12:32:03;10.63;;;2.70;;
44588;SDS011;30298;52.562;13.414;2023-04-25T12:34:29;5.38;;;2.95;;
44588;SDS011;30298;52.562;13.414;2023-04-25T12:36:56;8.93;;;2.45;;
44588;SDS011;30298;52.562;13.414;2023-04-25T12:39:24;3.42;;;2.00;;
44588;SDS011;30298;52.562;13.414;2023-04-25T12:41:53;6.78;;;2.40;;
44588;SDS011;30298;52.562;13.414;2023-04-25T12:44:21;3.92;;;2.08;;
44588;SDS011;30298;52.562;13.414;2023-04-25T12:46:46;13.68;;;2.22;;
44588;SDS011;30298;52.562;13.414;2023-04-25T12:49:12;7.45;;;2.10;;
44588;SDS011;30298;52.562;13.414;2023-04-25T12:51:37;3.55;;;2.13;;
44588;SDS011;30298;52.562;13.414;2023-04-25T12:54:04;7.00;;;3.00;;
44588;SDS011;30298;52.562;13.414;2023-04-25T12:58:55;11.53;;;2.27;;
44588;SDS011;30298;52.562;13.414;2023-04-25T13:01:20;4.25;;;2.28;;
44588;SDS011;30298;52.562;13.414;2023-04-25T13:03:46;9.68;;;2.50;;
44588;SDS011;30298;52.562;13.414;2023-04-25T13:08:38;4.13;;;2.05;;
44588;SDS011;30298;52.562;13.414;2023-04-25T13:11:04;6.68;;;3.20;;
44588;SDS011;30298;52.562;13.414;2023-04-25T13:13:29;7.10;;;2.45;;
44588;SDS011;30298;52.562;13.414;2023-04-25T13:15:56;4.88;;;2.00;;
44588;SDS011;30298;52.562;13.414;2023-04-25T13:18:22;7.30;;;2.47;;
44588;SDS011;30298;52.562;13.414;2023-04-25T13:20:51;4.78;;;2.20;;
44588;SDS011;30298;52.562;13.414;2023-04-25T13:23:16;5.97;;;2.37;;
44588;SDS011;30298;52.562;13.414;2023-04-25T13:25:41;7.50;;;1.87;;
44588;SDS011;30298;52.562;13.414;2023-04-25T13:28:07;6.03;;;2.03;;
44588;SDS011;30298;52.562;13.414;2023-04-25T13:30:33;6.80;;;2.10;;
44588;SDS011;30298;52.562;13.414;2023-04-25T13:32:58;6.38;;;2.13;;
44588;SDS011;30298;52.562;13.414;2023-04-25T13:35:29;7.50;;;1.90;;
44588;SDS011;30298;52.562;13.414;2023-04-25T13:37:55;4.22;;;2.47;;
44588;SDS011;30298;52.562;13.414;2023-04-25T13:40:20;7.32;;;2.13;;
44588;SDS011;30298;52.562;13.414;2023-04-25T13:42:46;6.43;;;2.70;;
44588;SDS011;30298;52.562;13.414;2023-04-25T13:45:11;6.28;;;2.35;;
44588;SDS011;30298;52.562;13.414;2023-04-25T13:47:36;8.33;;;2.33;;
44588;SDS011;30298;52.562;13.414;2023-04-25T13:50:02;7.57;;;2.47;;
44588;SDS011;30298;52.562;13.414;2023-04-25T13:52:28;4.88;;;2.60;;
44588;SDS011;30298;52.562;13.414;2023-04-25T13:54:54;9.63;;;2.38;;
44588;SDS011;30298;52.562;13.414;2023-04-25T13:57:19;7.20;;;2.93;;
44588;SDS011;30298;52.562;13.414;2023-04-25T13:59:44;9.30;;;3.60;;
44588;SDS011;30298;52.562;13.414;2023-04-25T14:02:10;4.20;;;1.77;;
44588;SDS011;30298;52.562;13.414;2023-04-25T14:04:35;6.33;;;2.50;;
44588;SDS011;30298;52.562;13.414;2023-04-25T14:07:02;6.37;;;2.23;;
44588;SDS011;30298;52.562;13.414;2023-04-25T14:09:28;7.47;;;2.88;;
44588;SDS011;30298;52.562;13.414;2023-04-25T14:11:54;7.65;;;2.67;;
44588;SDS011;30298;52.562;13.414;2023-04-25T14:14:20;8.02;;;2.53;;
44588;SDS011;30298;52.562;13.414;2023-04-25T14:16:46;9.20;;;2.35;;
44588;SDS011;30298;52.562;13.414;2023-04-25T14:19:13;5.20;;;2.90;;
44588;SDS011;30298;52.562;13.414;2023-04-25T14:21:41;5.83;;;3.10;;
44588;SDS011;30298;52.562;13.414;2023-04-25T14:24:08;8.02;;;3.10;;
44588;SDS011;30298;52.562;13.414;2023-04-25T14:26:33;6.43;;;2.40;;
44588;SDS011;30298;52.562;13.414;2023-04-25T14:28:59;4.75;;;2.10;;
44588;SDS011;30298;52.562;13.414;2023-04-25T14:31:24;6.73;;;2.57;;
44588;SDS011;30298;52.562;13.414;2023-04-25T14:33:50;8.33;;;2.37;;
44588;SDS011;30298;52.562;13.414;2023-04-25T14:36:15;6.30;;;2.50;;
44588;SDS011;30298;52.562;13.414;2023-04-25T14:38:43;5.40;;;2.03;;
44588;SDS011;30298;52.562;13.414;2023-04-25T14:41:09;3.90;;;2.28;;
44588;SDS011;30298;52.562;13.414;2023-04-25T14:43:35;3.65;;;2.15;;